createdAt,value
2018-12-06T00:00:05.973Z,100525.05
2018-12-06T00:02:34.611Z,100527.02
2018-12-06T00:05:03.126Z,100528.46
2018-12-06T00:07:31.751Z,100522.11
2018-12-06T00:10:00.371Z,100519.79
2018-12-06T00:12:28.915Z,100524.04
2018-12-06T00:15:08.711Z,100520.27
2018-12-06T00:17:37.219Z,100515.67
2018-12-06T00:20:06.186Z,100514.53
2018-12-06T00:22:34.680Z,100515.68
2018-12-06T00:25:03.203Z,100513.56
2018-12-06T00:27:31.771Z,100506.30
2018-12-06T00:30:11.463Z,100506.73
2018-12-06T00:32:40.031Z,100504.64
2018-12-06T00:35:08.509Z,100505.95
2018-12-06T00:37:37.054Z,100506.61
2018-12-06T00:40:06.017Z,100499.42
2018-12-06T00:42:34.596Z,100498.91
2018-12-06T00:45:03.118Z,100502.67
2018-12-06T00:47:31.683Z,100504.33
2018-12-06T00:50:00.226Z,100496.89
2018-12-06T00:52:28.679Z,100499.33
2018-12-06T00:54:57.257Z,100497.17
2018-12-06T00:57:25.800Z,100498.84
2018-12-06T00:59:54.345Z,100496.17
2018-12-06T01:02:23.009Z,100500.59
2018-12-06T01:04:51.484Z,100499.15
2018-12-06T01:07:19.936Z,100495.52
2018-12-06T01:09:48.447Z,100489.42
2018-12-06T01:12:18.997Z,100485.83
2018-12-06T01:14:47.576Z,100492.69
2018-12-06T01:17:16.054Z,100486.78
2018-12-06T01:19:44.569Z,100486.12
2018-12-06T01:22:13.071Z,100476.73
2018-12-06T01:24:41.540Z,100474.72
2018-12-06T01:27:10.049Z,100481.16
2018-12-06T01:29:38.581Z,100484.09
2018-12-06T01:32:07.141Z,100481.45
2018-12-06T01:34:35.608Z,100475.71
2018-12-06T01:37:04.131Z,100476.18
2018-12-06T01:39:32.594Z,100475.86
2018-12-06T01:42:01.091Z,100476.14
2018-12-06T01:44:29.609Z,100473.98
2018-12-06T01:46:58.199Z,100475.45
2018-12-06T01:49:26.767Z,100474.63
2018-12-06T01:51:55.305Z,100472.08
2018-12-06T01:54:23.924Z,100472.23
2018-12-06T01:56:52.430Z,100470.87
2018-12-06T01:59:20.925Z,100467.22
2018-12-06T02:01:49.465Z,100462.32
2018-12-06T02:04:17.986Z,100463.03
2018-12-06T02:06:46.524Z,100464.50
2018-12-06T02:09:15.072Z,100462.56
2018-12-06T02:11:43.674Z,100463.99
2018-12-06T02:14:12.160Z,100462.50
2018-12-06T02:16:40.636Z,100464.13
2018-12-06T02:19:09.312Z,100463.80
2018-12-06T02:21:37.924Z,100474.14
2018-12-06T02:24:06.449Z,100474.63
2018-12-06T02:26:34.980Z,100479.53
2018-12-06T02:29:03.642Z,100470.48
2018-12-06T02:31:32.145Z,100475.09
2018-12-06T02:34:00.704Z,100469.66
2018-12-06T02:36:29.256Z,100480.66
2018-12-06T02:38:58.025Z,100463.73
2018-12-06T02:41:26.637Z,100467.81
2018-12-06T02:43:55.298Z,100477.36
2018-12-06T02:46:24.050Z,100475.48
2018-12-06T02:48:52.586Z,100470.89
2018-12-06T02:51:21.205Z,100466.11
2018-12-06T02:53:49.772Z,100468.44
2018-12-06T02:56:18.322Z,100461.50
2018-12-06T02:58:46.796Z,100462.44
2018-12-06T03:01:15.311Z,100462.61
2018-12-06T03:03:43.788Z,100455.19
2018-12-06T03:06:12.308Z,100450.23
2018-12-06T03:08:40.936Z,100449.77
2018-12-06T03:11:09.655Z,100460.94
2018-12-06T03:13:38.237Z,100455.01
2018-12-06T03:16:06.844Z,100450.78
2018-12-06T03:18:35.375Z,100449.54
2018-12-06T03:21:03.900Z,100453.20
2018-12-06T03:23:32.784Z,100449.75
2018-12-06T03:26:01.284Z,100454.00
2018-12-06T03:28:29.885Z,100445.92
2018-12-06T03:30:58.398Z,100448.92
2018-12-06T03:33:27.178Z,100441.88
2018-12-06T03:35:55.913Z,100431.72
2018-12-06T03:38:24.429Z,100423.05
2018-12-06T03:40:53.016Z,100411.21
2018-12-06T03:43:21.536Z,100405.56
2018-12-06T03:45:50.027Z,100405.23
2018-12-06T03:48:18.630Z,100412.16
2018-12-06T03:50:47.167Z,100406.72
2018-12-06T03:53:15.763Z,100417.89
2018-12-06T03:55:44.262Z,100427.75
2018-12-06T03:58:12.917Z,100430.70
2018-12-06T04:00:42.521Z,100432.20
2018-12-06T04:03:10.991Z,100435.36
2018-12-06T04:05:39.491Z,100439.25
2018-12-06T04:08:14.920Z,100445.16
2018-12-06T04:10:43.407Z,100458.13
2018-12-06T04:13:11.861Z,100468.65
2018-12-06T04:15:40.424Z,100478.69
2018-12-06T04:18:08.896Z,100475.39
2018-12-06T04:20:37.431Z,100472.23
2018-12-06T04:23:05.983Z,100473.71
2018-12-06T04:25:34.615Z,100469.09
2018-12-06T04:28:03.201Z,100473.84
2018-12-06T04:30:31.741Z,100472.51
2018-12-06T04:33:00.243Z,100474.29
2018-12-06T04:35:28.858Z,100460.97
2018-12-06T04:37:57.373Z,100457.39
2018-12-06T04:40:25.847Z,100457.46
2018-12-06T04:42:54.332Z,100459.76
2018-12-06T04:45:22.824Z,100454.65
2018-12-06T04:47:51.296Z,100464.41
2018-12-06T04:50:19.811Z,100465.55
2018-12-06T04:52:48.301Z,100474.05
2018-12-06T04:55:16.783Z,100475.06
2018-12-06T04:57:45.254Z,100474.11
2018-12-06T05:00:13.749Z,100472.91
2018-12-06T05:02:42.333Z,100471.11
2018-12-06T05:05:11.149Z,100471.78
2018-12-06T05:07:39.668Z,100463.40
2018-12-06T05:10:08.411Z,100455.97
2018-12-06T05:12:36.969Z,100460.74
2018-12-06T05:15:05.868Z,100462.36
2018-12-06T05:17:35.438Z,100445.53
2018-12-06T05:20:04.252Z,100428.73
2018-12-06T05:22:32.772Z,100430.05
2018-12-06T05:25:01.296Z,100440.27
2018-12-06T05:27:29.808Z,100448.59
2018-12-06T05:29:58.316Z,100447.22
2018-12-06T05:32:26.807Z,100444.13
2018-12-06T05:34:55.308Z,100448.72
2018-12-06T05:37:23.804Z,100455.12
2018-12-06T05:39:52.289Z,100455.58
2018-12-06T05:42:20.873Z,100462.98
2018-12-06T05:44:49.379Z,100462.41
2018-12-06T05:47:17.928Z,100463.87
2018-12-06T05:49:47.340Z,100470.27
2018-12-06T05:52:16.141Z,100467.67
2018-12-06T05:54:44.676Z,100467.67
2018-12-06T05:57:13.243Z,100468.98
2018-12-06T05:59:41.822Z,100463.05
2018-12-06T06:02:10.357Z,100469.42
2018-12-06T06:04:38.864Z,100468.71
2018-12-06T06:07:07.356Z,100468.25
2018-12-06T06:09:35.912Z,100481.76
2018-12-06T06:12:04.618Z,100474.70
2018-12-06T06:14:33.141Z,100478.51
2018-12-06T06:17:01.644Z,100487.27
2018-12-06T06:19:30.156Z,100489.56
2018-12-06T06:21:58.743Z,100487.20
2018-12-06T06:27:10.182Z,100505.25
2018-12-06T06:29:38.676Z,100514.92
2018-12-06T06:32:07.153Z,100529.59
2018-12-06T06:34:35.814Z,100538.94
2018-12-06T06:37:04.311Z,100540.59
2018-12-06T06:39:32.783Z,100539.92
2018-12-06T06:42:01.304Z,100531.83
2018-12-06T06:44:29.823Z,100533.42
2018-12-06T06:46:58.300Z,100526.34
2018-12-06T06:49:26.804Z,100527.66
2018-12-06T06:51:55.291Z,100527.48
2018-12-06T06:54:23.895Z,100532.34
2018-12-06T06:56:52.448Z,100534.80
2018-12-06T06:59:26.117Z,100544.66
2018-12-06T07:01:51.733Z,100543.00
2018-12-06T07:04:20.196Z,100554.68
2018-12-06T07:06:48.686Z,100547.23
2018-12-06T07:09:17.504Z,100558.27
2018-12-06T07:11:46.048Z,100555.02
2018-12-06T07:14:14.597Z,100560.41
2018-12-06T07:16:43.417Z,100558.23
2018-12-06T07:19:11.916Z,100556.42
2018-12-06T07:21:40.434Z,100569.45
2018-12-06T07:24:08.966Z,100571.29
2018-12-06T07:26:37.544Z,100574.54
2018-12-06T07:29:06.185Z,100578.09
2018-12-06T07:31:34.709Z,100587.95
2018-12-06T07:34:03.277Z,100593.72
2018-12-06T07:36:31.778Z,100602.23
2018-12-06T07:39:00.312Z,100600.06
2018-12-06T07:41:28.876Z,100601.19
2018-12-06T07:43:57.349Z,100589.78
2018-12-06T07:46:25.916Z,100600.33
2018-12-06T07:48:54.410Z,100604.92
2018-12-06T07:51:22.947Z,100597.69
2018-12-06T07:53:51.438Z,100601.77
2018-12-06T07:56:19.961Z,100603.34
2018-12-06T07:58:48.476Z,100601.65
2018-12-06T08:01:17.114Z,100595.55
2018-12-06T08:03:45.608Z,100584.50
2018-12-06T08:06:14.148Z,100585.27
2018-12-06T08:08:42.660Z,100580.44
2018-12-06T08:12:43.882Z,100585.98
2018-12-06T08:15:12.364Z,100594.72
2018-12-06T08:17:41.056Z,100593.81
2018-12-06T08:20:09.594Z,100584.13
2018-12-06T08:22:38.123Z,100584.29
2018-12-06T08:25:06.652Z,100580.94
2018-12-06T08:27:35.112Z,100589.98
2018-12-06T08:30:04.027Z,100593.11
2018-12-06T08:32:32.540Z,100596.20
2018-12-06T08:35:01.016Z,100590.92
2018-12-06T08:37:29.496Z,100588.09
2018-12-06T08:39:57.973Z,100597.36
2018-12-06T08:42:26.476Z,100604.34
2018-12-06T08:44:54.972Z,100606.74
2018-12-06T08:47:23.522Z,100606.55
2018-12-06T08:49:52.644Z,100612.77
2018-12-06T08:52:21.318Z,100614.59
2018-12-06T08:54:56.504Z,100611.08
2018-12-06T08:57:25.371Z,100610.39
2018-12-06T08:59:53.845Z,100619.44
2018-12-06T09:02:22.385Z,100611.18
2018-12-06T09:04:51.045Z,100612.84
2018-12-06T09:07:19.514Z,100612.16
2018-12-06T09:09:48.016Z,100610.15
2018-12-06T09:12:16.621Z,100591.98
2018-12-06T09:14:45.080Z,100597.66
2018-12-06T09:17:13.555Z,100598.15
2018-12-06T09:19:42.037Z,100596.00
2018-12-06T09:22:10.536Z,100597.08
2018-12-06T09:24:39.060Z,100599.30
2018-12-06T09:27:07.528Z,100596.70
2018-12-06T09:29:36.079Z,100590.63
2018-12-06T09:32:04.728Z,100597.64
2018-12-06T09:34:39.743Z,100595.58
2018-12-06T09:37:08.370Z,100589.62
2018-12-06T09:39:36.841Z,100598.47
2018-12-06T09:42:05.453Z,100595.20
2018-12-06T09:44:33.998Z,100596.08
2018-12-06T09:47:02.534Z,100595.01
2018-12-06T09:49:32.785Z,100603.56
2018-12-06T09:52:01.442Z,100606.70
2018-12-06T09:54:29.904Z,100615.95
2018-12-06T09:56:58.409Z,100615.66
2018-12-06T09:59:27.042Z,100617.03
2018-12-06T10:01:55.517Z,100625.98
2018-12-06T10:04:24.004Z,100617.80
2018-12-06T10:06:52.544Z,100615.41
2018-12-06T10:09:21.061Z,100624.57
2018-12-06T10:11:49.529Z,100634.15
2018-12-06T10:14:19.615Z,100642.88
2018-12-06T10:16:48.352Z,100645.91
2018-12-06T10:19:16.833Z,100641.64
2018-12-06T10:21:45.295Z,100635.72
2018-12-06T10:24:13.892Z,100639.55
2018-12-06T10:26:42.381Z,100642.83
2018-12-06T10:29:10.909Z,100633.24
2018-12-06T10:31:39.572Z,100642.24
2018-12-06T10:34:08.208Z,100643.27
2018-12-06T10:36:36.701Z,100640.73
2018-12-06T10:39:07.970Z,100644.20
2018-12-06T10:41:36.748Z,100628.14
2018-12-06T10:44:05.362Z,100620.84
2018-12-06T10:46:33.841Z,100621.78
2018-12-06T10:49:02.325Z,100622.80
2018-12-06T10:51:40.812Z,100629.66
2018-12-06T10:54:09.380Z,100638.77
2018-12-06T10:56:37.941Z,100638.22
2018-12-06T10:59:06.451Z,100646.15
2018-12-06T11:01:40.097Z,100646.64
2018-12-06T11:04:08.632Z,100642.54
2018-12-06T11:06:37.264Z,100649.59
2018-12-06T11:09:07.741Z,100645.76
2018-12-06T11:11:36.380Z,100642.23
2018-12-06T11:14:04.996Z,100632.89
2018-12-06T11:16:33.573Z,100642.41
2018-12-06T11:19:02.193Z,100645.36
2018-12-06T11:21:30.812Z,100655.73
2018-12-06T11:23:59.417Z,100658.95
2018-12-06T11:26:27.884Z,100658.08
2018-12-06T11:28:56.373Z,100664.41
2018-12-06T11:31:24.915Z,100663.46
2018-12-06T11:33:53.411Z,100661.69
2018-12-06T11:36:21.985Z,100648.33
2018-12-06T11:38:50.555Z,100652.19
2018-12-06T11:41:19.217Z,100645.58
2018-12-06T11:43:47.714Z,100639.07
2018-12-06T11:46:16.245Z,100638.05
2018-12-06T11:48:44.799Z,100644.09
2018-12-06T11:51:13.315Z,100650.91
2018-12-06T11:53:41.788Z,100647.61
2018-12-06T11:56:10.261Z,100643.87
2018-12-06T11:58:38.782Z,100638.39
2018-12-06T12:01:07.280Z,100636.53
2018-12-06T12:03:35.800Z,100645.50
2018-12-06T12:06:04.291Z,100634.41
2018-12-06T12:08:32.788Z,100631.91
2018-12-06T12:11:01.315Z,100629.45
2018-12-06T12:13:31.245Z,100649.83
2018-12-06T12:16:00.235Z,100634.45
2018-12-06T12:18:28.881Z,100637.09
2018-12-06T12:20:57.350Z,100636.59
2018-12-06T12:23:25.832Z,100626.61
2018-12-06T12:25:54.316Z,100630.71
2018-12-06T12:28:22.784Z,100639.02
2018-12-06T12:30:51.445Z,100656.71
2018-12-06T12:33:20.002Z,100659.36
2018-12-06T12:35:48.532Z,100664.16
2018-12-06T12:38:17.069Z,100663.89
2018-12-06T12:40:45.547Z,100672.82
2018-12-06T12:43:14.152Z,100659.69
2018-12-06T12:45:42.679Z,100652.67
2018-12-06T12:48:11.170Z,100663.19
2018-12-06T12:50:39.808Z,100661.44
2018-12-06T12:53:08.252Z,100661.01
2018-12-06T12:55:36.974Z,100656.48
2018-12-06T12:58:05.459Z,100657.41
2018-12-06T13:00:34.027Z,100653.79
2018-12-06T13:03:02.568Z,100652.86
2018-12-06T13:05:31.185Z,100644.43
2018-12-06T13:07:59.793Z,100648.46
2018-12-06T13:10:28.300Z,100639.80
2018-12-06T13:12:56.828Z,100641.91
2018-12-06T13:15:25.311Z,100641.35
2018-12-06T13:17:53.784Z,100636.80
2018-12-06T13:20:23.269Z,100633.52
2018-12-06T13:22:51.763Z,100634.55
2018-12-06T13:25:20.369Z,100635.91
2018-12-06T13:27:49.003Z,100642.19
2018-12-06T13:30:17.964Z,100642.97
2018-12-06T13:32:46.541Z,100635.92
2018-12-06T13:35:15.367Z,100637.05
2018-12-06T13:37:43.865Z,100643.60
2018-12-06T13:40:12.404Z,100638.27
2018-12-06T13:42:40.895Z,100648.22
2018-12-06T13:45:09.463Z,100644.47
2018-12-06T13:47:38.097Z,100629.30
2018-12-06T13:50:07.049Z,100629.20
2018-12-06T13:52:35.565Z,100634.34
2018-12-06T13:55:04.587Z,100642.28
2018-12-06T13:57:33.138Z,100644.68
2018-12-06T14:00:01.680Z,100645.50
2018-12-06T14:02:30.219Z,100649.34
2018-12-06T14:04:58.751Z,100644.73
2018-12-06T14:07:27.380Z,100648.45
2018-12-06T14:09:55.870Z,100646.69
2018-12-06T14:12:24.400Z,100659.72
2018-12-06T14:14:53.039Z,100651.48
2018-12-06T14:17:21.732Z,100654.48
2018-12-06T14:19:50.206Z,100652.16
2018-12-06T14:22:18.956Z,100640.02
2018-12-06T14:24:47.492Z,100646.30
2018-12-06T14:27:16.031Z,100648.45
2018-12-06T14:29:44.690Z,100647.86
2018-12-06T14:32:13.216Z,100634.73
2018-12-06T14:34:41.788Z,100629.84
2018-12-06T14:37:10.263Z,100643.30
2018-12-06T14:39:38.949Z,100635.37
2018-12-06T14:42:07.515Z,100634.73
2018-12-06T14:44:36.446Z,100630.63
2018-12-06T14:47:04.987Z,100623.23
2018-12-06T14:49:33.528Z,100626.17
2018-12-06T14:52:02.229Z,100634.60
2018-12-06T14:54:30.821Z,100642.73
2018-12-06T14:56:59.599Z,100631.07
2018-12-06T14:59:28.073Z,100635.53
2018-12-06T15:01:56.598Z,100640.02
2018-12-06T15:04:25.352Z,100642.09
2018-12-06T15:06:54.041Z,100634.80
2018-12-06T15:09:22.875Z,100637.33
2018-12-06T15:11:51.631Z,100630.53
2018-12-06T15:14:20.520Z,100645.07
2018-12-06T15:16:49.332Z,100633.03
2018-12-06T15:19:18.215Z,100630.20
2018-12-06T15:21:46.876Z,100630.20
2018-12-06T15:24:15.564Z,100625.73
2018-12-06T15:26:44.046Z,100629.20
2018-12-06T15:29:12.530Z,100627.64
2018-12-06T15:31:41.059Z,100632.21
2018-12-06T15:34:09.626Z,100633.17
2018-12-06T15:36:38.173Z,100635.62
2018-12-06T15:39:08.383Z,100634.36
2018-12-06T15:41:36.969Z,100629.56
2018-12-06T15:44:05.459Z,100627.50
2018-12-06T15:46:34.025Z,100620.59
2018-12-06T15:49:02.492Z,100616.42
2018-12-06T15:51:30.981Z,100611.39
2018-12-06T15:53:59.488Z,100601.45
2018-12-06T15:56:28.068Z,100594.59
2018-12-06T15:58:56.602Z,100591.77
2018-12-06T16:01:25.087Z,100589.67
2018-12-06T16:03:53.564Z,100589.31
2018-12-06T16:06:22.169Z,100591.17
2018-12-06T16:08:50.665Z,100591.50
2018-12-06T16:11:19.269Z,100599.10
2018-12-06T16:13:47.879Z,100601.25
2018-12-06T16:16:16.332Z,100606.73
2018-12-06T16:18:44.875Z,100603.89
2018-12-06T16:21:13.365Z,100607.86
2018-12-06T16:23:41.893Z,100611.24
2018-12-06T16:26:10.401Z,100602.31
2018-12-06T16:28:38.887Z,100599.73
2018-12-06T16:31:07.455Z,100594.62
2018-12-06T16:33:36.065Z,100585.73
2018-12-06T16:36:04.684Z,100589.39
2018-12-06T16:38:33.219Z,100586.55
2018-12-06T16:41:01.948Z,100584.05
2018-12-06T16:43:30.501Z,100580.44
2018-12-06T16:45:58.977Z,100573.38
2018-12-06T16:48:27.532Z,100569.77
2018-12-06T16:50:56.034Z,100573.57
2018-12-06T16:53:24.508Z,100578.40
2018-12-06T16:55:53.083Z,100577.08
2018-12-06T16:58:21.537Z,100579.48
2018-12-06T17:00:50.168Z,100576.64
2018-12-06T17:03:18.895Z,100575.55
2018-12-06T17:05:47.545Z,100577.20
2018-12-06T17:08:16.311Z,100575.59
2018-12-06T17:10:44.865Z,100566.86
2018-12-06T17:13:13.331Z,100564.41
2018-12-06T17:15:41.828Z,100563.48
2018-12-06T17:18:10.333Z,100569.41
2018-12-06T17:20:39.050Z,100568.78
2018-12-06T17:23:07.534Z,100572.15
2018-12-06T17:25:36.052Z,100568.48
2018-12-06T17:28:04.653Z,100562.70
2018-12-06T17:30:33.221Z,100570.43
2018-12-06T17:33:01.881Z,100569.73
2018-12-06T17:35:30.467Z,100556.18
2018-12-06T17:37:58.964Z,100565.14
2018-12-06T17:40:27.609Z,100568.61
2018-12-06T17:42:56.226Z,100575.39
2018-12-06T17:45:24.858Z,100572.05
2018-12-06T17:47:53.383Z,100568.64
2018-12-06T17:50:21.972Z,100564.74
2018-12-06T17:52:50.492Z,100560.25
2018-12-06T17:55:19.060Z,100557.08
2018-12-06T17:57:47.650Z,100560.67
2018-12-06T18:00:16.210Z,100562.30
2018-12-06T18:02:44.687Z,100554.66
2018-12-06T18:05:13.373Z,100553.86
2018-12-06T18:07:41.919Z,100556.51
2018-12-06T18:10:11.370Z,100558.95
2018-12-06T18:12:40.068Z,100558.20
2018-12-06T18:15:09.398Z,100552.41
2018-12-06T18:17:37.869Z,100557.70
2018-12-06T18:20:07.253Z,100559.52
2018-12-06T18:22:35.805Z,100563.19
2018-12-06T18:25:04.580Z,100559.52
2018-12-06T18:27:33.345Z,100575.72
2018-12-06T18:30:01.903Z,100571.42
2018-12-06T18:32:30.405Z,100565.84
2018-12-06T18:34:59.057Z,100572.75
2018-12-06T18:37:27.568Z,100569.50
2018-12-06T18:39:56.056Z,100564.81
2018-12-06T18:42:24.611Z,100567.29
2018-12-06T18:44:53.112Z,100570.43
2018-12-06T18:47:22.415Z,100559.35
2018-12-06T18:49:51.061Z,100558.53
2018-12-06T18:52:19.582Z,100555.28
2018-12-06T18:54:48.101Z,100547.25
2018-12-06T18:57:16.685Z,100547.75
2018-12-06T18:59:45.327Z,100555.25
2018-12-06T19:02:13.891Z,100539.61
2018-12-06T19:04:42.411Z,100529.23
2018-12-06T19:07:10.982Z,100525.77
2018-12-06T19:09:40.784Z,100527.61
2018-12-06T19:12:09.263Z,100522.02
2018-12-06T19:14:37.754Z,100511.44
2018-12-06T19:17:06.289Z,100510.11
2018-12-06T19:19:34.885Z,100509.52
2018-12-06T19:22:03.497Z,100500.56
2018-12-06T19:24:31.957Z,100505.45
2018-12-06T19:27:00.578Z,100505.45
2018-12-06T19:29:29.197Z,100511.23
2018-12-06T19:31:57.868Z,100512.56
2018-12-06T19:34:26.440Z,100515.95
2018-12-06T19:36:55.230Z,100511.98
2018-12-06T19:39:23.851Z,100516.25
2018-12-06T19:41:52.379Z,100519.23
2018-12-06T19:44:21.829Z,100513.94
2018-12-06T19:46:50.340Z,100512.41
2018-12-06T19:49:19.098Z,100502.83
2018-12-06T19:51:47.587Z,100505.89
2018-12-06T19:54:16.216Z,100509.86
2018-12-06T19:56:44.780Z,100515.78
2018-12-06T19:59:13.436Z,100504.08
2018-12-06T20:01:41.924Z,100520.67
2018-12-06T20:04:10.497Z,100515.59
2018-12-06T20:06:39.008Z,100510.21
2018-12-06T20:09:09.477Z,100506.69
2018-12-06T20:11:38.180Z,100497.80
2018-12-06T20:14:06.799Z,100500.08
2018-12-06T20:16:35.280Z,100496.73
2018-12-06T20:19:04.024Z,100489.66
2018-12-06T20:21:32.738Z,100479.20
2018-12-06T20:24:01.229Z,100476.15
2018-12-06T20:26:29.720Z,100464.77
2018-12-06T20:28:58.461Z,100462.67
2018-12-06T20:31:27.138Z,100457.91
2018-12-06T20:33:56.228Z,100457.91
2018-12-06T20:36:25.372Z,100464.97
2018-12-06T20:38:54.180Z,100469.94
2018-12-06T20:41:22.908Z,100478.09
2018-12-06T20:43:52.205Z,100478.50
2018-12-06T20:46:20.894Z,100475.25
2018-12-06T20:48:49.380Z,100480.95
2018-12-06T20:51:17.866Z,100483.23
2018-12-06T20:53:46.444Z,100477.53
2018-12-06T20:56:14.984Z,100478.85
2018-12-06T20:58:44.425Z,100473.23
2018-12-06T21:01:12.962Z,100473.55
2018-12-06T21:03:41.572Z,100465.91
2018-12-06T21:06:10.393Z,100470.70
2018-12-06T21:08:38.940Z,100477.03
2018-12-06T21:11:07.471Z,100471.83
2018-12-06T21:13:36.144Z,100475.78
2018-12-06T21:16:05.847Z,100464.48
2018-12-06T21:18:34.321Z,100465.91
2018-12-06T21:21:02.813Z,100461.53
2018-12-06T21:23:31.416Z,100459.91
2018-12-06T21:26:00.155Z,100455.51
2018-12-06T21:28:28.681Z,100458.81
2018-12-06T21:30:57.185Z,100457.77
2018-12-06T21:33:25.663Z,100453.67
2018-12-06T21:35:54.209Z,100454.28
2018-12-06T21:38:22.700Z,100452.47
2018-12-06T21:40:51.263Z,100452.77
2018-12-06T21:43:19.749Z,100446.47
2018-12-06T21:45:48.305Z,100445.15
2018-12-06T21:48:16.863Z,100449.82
2018-12-06T21:50:45.399Z,100451.14
2018-12-06T21:53:13.867Z,100447.05
2018-12-06T21:55:42.541Z,100448.16
2018-12-06T21:58:11.052Z,100448.76
2018-12-06T22:00:39.556Z,100440.20
2018-12-06T22:03:08.055Z,100437.85
2018-12-06T22:05:36.592Z,100441.92
2018-12-06T22:08:05.297Z,100442.77
2018-12-06T22:10:33.945Z,100439.38
2018-12-06T22:13:03.128Z,100439.91
2018-12-06T22:15:32.411Z,100440.28
2018-12-06T22:18:00.923Z,100441.59
2018-12-06T22:20:29.591Z,100436.64
2018-12-06T22:23:01.072Z,100437.95
2018-12-06T22:25:28.736Z,100430.23
2018-12-06T22:27:57.217Z,100428.58
2018-12-06T22:30:26.104Z,100434.06
2018-12-06T22:32:54.720Z,100432.95
2018-12-06T22:35:23.282Z,100431.75
2018-12-06T22:37:52.065Z,100421.55
2018-12-06T22:40:20.660Z,100429.11
2018-12-06T22:42:49.269Z,100428.28
2018-12-06T22:46:29.396Z,100432.52
2018-12-06T22:49:00.281Z,100432.10
2018-12-06T22:51:29.077Z,100428.34
2018-12-06T22:53:57.827Z,100426.19
2018-12-06T22:56:28.170Z,100425.59
2018-12-06T22:58:56.696Z,100421.43
2018-12-06T23:01:30.710Z,100427.22
2018-12-06T23:03:59.879Z,100415.81
2018-12-06T23:06:28.489Z,100419.69
2018-12-06T23:08:56.983Z,100425.39
2018-12-06T23:11:25.464Z,100419.30
2018-12-06T23:13:54.043Z,100418.38
2018-12-06T23:16:22.546Z,100424.30
2018-12-06T23:18:51.081Z,100417.06
2018-12-06T23:21:19.556Z,100424.08
2018-12-06T23:23:48.040Z,100418.05
2018-12-06T23:26:16.745Z,100423.05
2018-12-06T23:28:45.215Z,100425.39
2018-12-06T23:31:14.257Z,100412.47
2018-12-06T23:33:42.789Z,100423.25
2018-12-06T23:36:11.906Z,100416.36
2018-12-06T23:38:40.589Z,100418.05
2018-12-06T23:41:09.155Z,100424.17
2018-12-06T23:43:37.707Z,100418.78
2018-12-06T23:46:06.190Z,100416.73
2018-12-06T23:48:35.290Z,100411.07
2018-12-06T23:51:15.052Z,100408.10
2018-12-06T23:53:43.604Z,100399.80
2018-12-06T23:56:12.128Z,100401.69
2018-12-06T23:58:40.670Z,100397.93
